createdAt,value
2022-09-14T00:00:01.944Z,17.71
2022-09-14T00:01:24.271Z,17.71
2022-09-14T00:02:02.953Z,17.71
2022-09-14T00:03:02.919Z,17.71
2022-09-14T00:04:02.738Z,17.72
2022-09-14T00:05:02.762Z,17.69
2022-09-14T00:06:02.715Z,17.68
2022-09-14T00:07:02.706Z,17.66
2022-09-14T00:08:02.685Z,17.66
2022-09-14T00:09:02.679Z,17.66
2022-09-14T00:10:02.675Z,17.68
2022-09-14T00:11:02.647Z,17.68
2022-09-14T00:12:02.636Z,17.69
2022-09-14T00:13:02.638Z,17.71
2022-09-14T00:14:02.621Z,17.69
2022-09-14T00:15:02.594Z,17.71
2022-09-14T00:16:02.614Z,17.71
2022-09-14T00:17:02.621Z,17.71
2022-09-14T00:18:02.566Z,17.72
2022-09-14T00:19:02.576Z,17.76
2022-09-14T00:20:02.532Z,17.83
2022-09-14T00:21:02.518Z,17.84
2022-09-14T00:22:02.504Z,17.86
2022-09-14T00:23:02.497Z,17.86
2022-09-14T00:24:02.513Z,17.86
2022-09-14T00:25:02.468Z,17.87
2022-09-14T00:26:02.442Z,17.87
2022-09-14T00:27:02.432Z,17.88
2022-09-14T00:28:02.420Z,17.88
2022-09-14T00:29:02.422Z,17.88
2022-09-14T00:30:02.391Z,17.88
2022-09-14T00:31:02.381Z,17.86
2022-09-14T00:32:02.433Z,17.86
2022-09-14T00:33:02.351Z,17.84
2022-09-14T00:34:02.376Z,17.84
2022-09-14T00:35:02.327Z,17.83
2022-09-14T00:36:02.304Z,17.84
2022-09-14T00:37:02.300Z,17.84
2022-09-14T00:38:02.305Z,17.87
2022-09-14T00:39:02.294Z,17.87
2022-09-14T00:40:02.319Z,17.86
2022-09-14T00:41:02.266Z,17.87
2022-09-14T00:42:02.264Z,17.87
2022-09-14T00:43:02.223Z,17.91
2022-09-14T00:44:02.246Z,17.91
2022-09-14T00:45:02.215Z,17.91
2022-09-14T00:46:02.259Z,17.93
2022-09-14T00:47:02.166Z,17.93
2022-09-14T00:48:02.151Z,17.96
2022-09-14T00:49:02.146Z,17.97
2022-09-14T00:50:02.124Z,17.99
2022-09-14T00:51:02.119Z,18.01
2022-09-14T00:52:02.096Z,18.01
2022-09-14T00:53:02.077Z,18.01
2022-09-14T00:54:02.085Z,18.01
2022-09-14T00:55:02.041Z,17.99
2022-09-14T00:56:02.037Z,18.01
2022-09-14T00:57:02.015Z,18.05
2022-09-14T00:58:02.007Z,18.08
2022-09-14T00:59:02.173Z,18.08
2022-09-14T01:00:01.969Z,18.03
2022-09-14T01:01:02.025Z,18.03
2022-09-14T01:02:02.020Z,18.02
2022-09-14T01:03:01.931Z,18.03
2022-09-14T01:04:01.947Z,18.03
2022-09-14T01:05:01.924Z,18.06
2022-09-14T01:06:01.896Z,18.09
2022-09-14T01:07:01.881Z,18.12
2022-09-14T01:08:01.881Z,18.12
2022-09-14T01:09:01.874Z,18.05
2022-09-14T01:10:01.861Z,18.02
2022-09-14T01:11:01.829Z,18.02
2022-09-14T01:12:01.824Z,18.01
2022-09-14T01:13:01.800Z,18.01
2022-09-14T01:14:01.810Z,17.99
2022-09-14T01:15:01.785Z,18.01
2022-09-14T01:16:01.815Z,18.02
2022-09-14T01:17:01.749Z,18.01
2022-09-14T01:18:01.762Z,18.02
2022-09-14T01:19:01.744Z,17.99
2022-09-14T01:20:01.701Z,17.97
2022-09-14T01:21:01.689Z,17.99
2022-09-14T01:22:01.685Z,18.01
2022-09-14T01:23:01.656Z,18.02
2022-09-14T01:24:01.667Z,18.01
2022-09-14T01:25:01.637Z,18.02
2022-09-14T01:26:01.623Z,18.06
2022-09-14T01:27:01.615Z,18.05
2022-09-14T01:28:01.590Z,18.02
2022-09-14T01:29:01.619Z,18.03
2022-09-14T01:30:01.572Z,18.03
2022-09-14T01:31:01.573Z,18.03
2022-09-14T01:32:01.610Z,18.01
2022-09-14T01:33:01.529Z,18.05
2022-09-14T01:34:01.533Z,18.03
2022-09-14T01:35:01.496Z,18.02
2022-09-14T01:36:01.478Z,18.06
2022-09-14T01:37:01.483Z,18.06
2022-09-14T01:38:01.460Z,18.09
2022-09-14T01:39:01.456Z,18.11
2022-09-14T01:40:01.516Z,18.05
2022-09-14T01:41:01.416Z,17.99
2022-09-14T01:42:01.415Z,17.99
2022-09-14T01:43:01.386Z,17.96
2022-09-14T01:44:01.395Z,17.97
2022-09-14T01:45:01.372Z,18.01
2022-09-14T01:46:01.409Z,18.01
2022-09-14T01:47:01.336Z,18.01
2022-09-14T01:48:01.333Z,18.01
2022-09-14T01:49:01.325Z,18.01
2022-09-14T01:50:01.300Z,18.02
2022-09-14T01:51:01.304Z,18.02
2022-09-14T01:52:01.280Z,18.03
2022-09-14T01:53:01.255Z,18.05
2022-09-14T01:54:01.265Z,18.05
2022-09-14T01:55:01.227Z,18.03
2022-09-14T01:56:01.221Z,18.02
2022-09-14T01:57:01.269Z,18.03
2022-09-14T01:58:01.189Z,18.02
2022-09-14T01:59:01.193Z,18.01
2022-09-14T02:00:01.189Z,17.97
2022-09-14T02:01:01.178Z,17.99
2022-09-14T02:02:01.200Z,18.01
2022-09-14T02:03:01.131Z,17.99
2022-09-14T02:04:01.127Z,17.99
2022-09-14T02:05:01.090Z,17.99
2022-09-14T02:06:01.087Z,18.02
2022-09-14T02:07:01.062Z,18.03
2022-09-14T02:08:01.062Z,18.02
2022-09-14T02:09:01.060Z,18.05
2022-09-14T02:10:01.051Z,18.05
2022-09-14T02:11:01.015Z,18.06
2022-09-14T02:12:01.025Z,18.09
2022-09-14T02:13:00.985Z,18.09
2022-09-14T02:14:00.988Z,18.08
2022-09-14T02:15:00.960Z,18.08
2022-09-14T02:16:01.026Z,18.05
2022-09-14T02:17:00.918Z,18.03
2022-09-14T02:18:00.912Z,18.01
2022-09-14T02:19:00.940Z,18.01
2022-09-14T02:20:00.883Z,18.01
2022-09-14T02:21:00.886Z,18.02
2022-09-14T02:22:00.880Z,18.03
2022-09-14T02:23:00.871Z,18.01
2022-09-14T02:24:00.876Z,18.02
2022-09-14T02:25:00.828Z,17.94
2022-09-14T02:26:00.817Z,17.94
2022-09-14T02:27:00.800Z,17.93
2022-09-14T02:28:00.795Z,17.90
2022-09-14T02:29:00.790Z,17.88
2022-09-14T02:30:00.760Z,17.90
2022-09-14T02:31:00.852Z,17.90
2022-09-14T02:32:00.728Z,17.93
2022-09-14T02:33:00.714Z,17.91
2022-09-14T02:34:00.731Z,17.91
2022-09-14T02:35:00.701Z,17.90
2022-09-14T02:36:00.670Z,17.90
2022-09-14T02:37:00.662Z,17.88
2022-09-14T02:38:00.640Z,17.87
2022-09-14T02:39:00.636Z,17.90
2022-09-14T02:40:00.710Z,17.88
2022-09-14T02:41:00.632Z,17.86
2022-09-14T02:42:00.595Z,17.88
2022-09-14T02:43:00.575Z,17.91
2022-09-14T02:44:00.609Z,17.90
2022-09-14T02:45:00.533Z,17.87
2022-09-14T02:46:00.535Z,17.81
2022-09-14T02:47:00.623Z,17.76
2022-09-14T02:48:00.521Z,17.75
2022-09-14T02:49:00.522Z,17.72
2022-09-14T02:50:00.485Z,17.72
2022-09-14T02:51:00.460Z,17.72
2022-09-14T02:52:00.455Z,17.69
2022-09-14T02:53:00.439Z,17.69
2022-09-14T02:54:00.449Z,17.68
2022-09-14T02:55:00.409Z,17.68
2022-09-14T02:56:00.396Z,17.66
2022-09-14T02:57:00.380Z,17.69
2022-09-14T02:58:00.379Z,17.69
2022-09-14T02:59:00.378Z,17.66
2022-09-14T03:00:00.377Z,17.65
2022-09-14T03:01:00.479Z,17.65
2022-09-14T03:02:00.420Z,17.66
2022-09-14T03:03:00.299Z,17.66
2022-09-14T03:04:00.343Z,17.66
2022-09-14T03:05:00.269Z,17.66
2022-09-14T03:06:00.268Z,17.69
2022-09-14T03:07:00.258Z,17.71
2022-09-14T03:08:00.236Z,17.71
2022-09-14T03:09:00.243Z,17.79
2022-09-14T03:10:00.207Z,17.83
2022-09-14T03:11:00.200Z,17.86
2022-09-14T03:12:00.192Z,17.88
2022-09-14T03:13:00.165Z,17.88
2022-09-14T03:14:00.177Z,17.79
2022-09-14T03:15:00.135Z,17.69
2022-09-14T03:16:00.193Z,17.57
2022-09-14T03:17:00.117Z,17.47
2022-09-14T03:18:00.108Z,17.35
2022-09-14T03:19:00.101Z,17.31
2022-09-14T03:20:00.122Z,17.27
2022-09-14T03:21:00.075Z,17.25
2022-09-14T03:22:00.048Z,17.24
2022-09-14T03:23:00.039Z,17.24
2022-09-14T03:24:00.051Z,17.24
2022-09-14T03:25:00.133Z,17.27
2022-09-14T03:25:59.994Z,17.24
2022-09-14T03:26:59.976Z,17.24
2022-09-14T03:27:59.966Z,17.25
2022-09-14T03:28:59.983Z,17.24
2022-09-14T03:30:00.208Z,17.22
2022-09-14T03:30:59.950Z,17.19
2022-09-14T03:31:59.911Z,17.16
2022-09-14T03:32:59.892Z,17.14
2022-09-14T03:33:59.945Z,17.10
2022-09-14T03:34:59.884Z,17.06
2022-09-14T03:35:59.859Z,17.01
2022-09-14T03:36:59.839Z,16.98
2022-09-14T03:37:59.901Z,16.97
2022-09-14T03:39:00.029Z,16.94
2022-09-14T03:39:59.870Z,16.94
2022-09-14T03:40:59.833Z,16.95
2022-09-14T03:41:59.769Z,16.98
2022-09-14T03:42:59.755Z,16.99
2022-09-14T03:44:00.089Z,16.99
2022-09-14T03:44:59.724Z,16.99
2022-09-14T03:45:59.838Z,16.98
2022-09-14T03:46:59.754Z,16.99
2022-09-14T03:47:59.699Z,16.98
2022-09-14T03:49:00.196Z,16.97
2022-09-14T03:49:59.698Z,16.95
2022-09-14T03:50:59.643Z,16.95
2022-09-14T03:52:00.009Z,16.94
2022-09-14T03:52:59.623Z,16.91
2022-09-14T03:53:59.665Z,16.87
2022-09-14T03:54:59.595Z,16.82
2022-09-14T03:55:59.582Z,16.79
2022-09-14T03:56:59.563Z,16.74
2022-09-14T03:57:59.562Z,16.73
2022-09-14T03:58:59.566Z,16.73
2022-09-14T03:59:59.587Z,16.73
2022-09-14T04:00:59.542Z,16.74
2022-09-14T04:01:59.535Z,16.74
2022-09-14T04:02:59.574Z,16.74
2022-09-14T04:03:59.488Z,16.76
2022-09-14T04:04:59.465Z,16.76
2022-09-14T04:05:59.470Z,16.77
2022-09-14T04:06:59.453Z,16.76
2022-09-14T04:07:59.429Z,16.74
2022-09-14T04:08:59.436Z,16.74
2022-09-14T04:09:59.415Z,16.74
2022-09-14T04:10:59.364Z,16.74
2022-09-14T04:11:59.373Z,16.76
2022-09-14T04:12:59.346Z,16.74
2022-09-14T04:13:59.343Z,16.74
2022-09-14T04:14:59.345Z,16.72
2022-09-14T04:15:59.368Z,16.69
2022-09-14T04:16:59.286Z,16.72
2022-09-14T04:17:59.378Z,16.72
2022-09-14T04:18:59.297Z,16.73
2022-09-14T04:19:59.278Z,16.72
2022-09-14T04:20:59.225Z,16.72
2022-09-14T04:21:59.226Z,16.72
2022-09-14T04:22:59.219Z,16.70
2022-09-14T04:24:16.187Z,16.70
2022-09-14T04:24:59.221Z,16.69
2022-09-14T04:25:59.205Z,16.70
2022-09-14T04:26:59.176Z,16.69
2022-09-14T04:28:19.085Z,16.65
2022-09-14T04:28:59.321Z,16.67
2022-09-14T04:29:59.128Z,16.67
2022-09-14T04:30:59.167Z,16.72
2022-09-14T04:31:59.099Z,16.73
2022-09-14T04:32:59.090Z,16.73
2022-09-14T04:33:59.073Z,16.72
2022-09-14T04:34:59.043Z,16.69
2022-09-14T04:35:59.036Z,16.70
2022-09-14T04:36:59.017Z,16.67
2022-09-14T04:37:59.017Z,16.67
2022-09-14T04:38:59.000Z,16.65
2022-09-14T04:39:59.045Z,16.65
2022-09-14T04:40:58.957Z,16.65
2022-09-14T04:41:58.949Z,16.62
2022-09-14T04:42:58.934Z,16.64
2022-09-14T04:43:58.940Z,16.65
2022-09-14T04:44:58.912Z,16.65
2022-09-14T04:45:58.894Z,16.67
2022-09-14T04:46:58.913Z,16.69
2022-09-14T04:47:58.808Z,16.70
2022-09-14T04:48:58.883Z,16.69
2022-09-14T04:49:58.842Z,16.69
2022-09-14T04:50:58.800Z,16.70
2022-09-14T04:51:58.757Z,16.72
2022-09-14T04:52:58.737Z,16.74
2022-09-14T04:53:58.771Z,16.74
2022-09-14T04:54:58.720Z,16.76
2022-09-14T04:55:58.703Z,16.76
2022-09-14T04:56:58.744Z,16.73
2022-09-14T04:57:58.739Z,16.73
2022-09-14T04:58:58.730Z,16.72
2022-09-14T04:59:58.695Z,16.72
2022-09-14T05:00:58.638Z,16.70
2022-09-14T05:01:58.718Z,16.72
2022-09-14T05:02:58.707Z,16.74
2022-09-14T05:03:58.639Z,16.76
2022-09-14T05:04:58.596Z,16.80
2022-09-14T05:05:58.582Z,16.80
2022-09-14T05:06:58.560Z,16.80
2022-09-14T05:07:58.532Z,16.79
2022-09-14T05:08:58.539Z,16.76
2022-09-14T05:09:58.503Z,16.74
2022-09-14T05:10:58.515Z,16.73
2022-09-14T05:11:58.474Z,16.76
2022-09-14T05:12:58.547Z,16.74
2022-09-14T05:13:58.493Z,16.77
2022-09-14T05:14:58.443Z,16.79
2022-09-14T05:15:58.476Z,16.76
2022-09-14T05:16:58.473Z,16.74
2022-09-14T05:17:58.399Z,16.74
2022-09-14T05:18:58.420Z,16.73
2022-09-14T05:19:58.364Z,16.73
2022-09-14T05:20:58.386Z,16.73
2022-09-14T05:21:58.337Z,16.72
2022-09-14T05:22:58.331Z,16.73
2022-09-14T05:23:58.335Z,16.70
2022-09-14T05:24:58.345Z,16.70
2022-09-14T05:25:58.306Z,16.67
2022-09-14T05:27:00.603Z,16.67
2022-09-14T05:27:58.266Z,16.65
2022-09-14T05:28:58.267Z,16.64
2022-09-14T05:29:58.228Z,16.62
2022-09-14T05:30:58.281Z,16.61
2022-09-14T05:31:58.214Z,16.59
2022-09-14T05:32:58.285Z,16.57
2022-09-14T05:33:58.212Z,16.58
2022-09-14T05:34:58.190Z,16.57
2022-09-14T05:35:58.153Z,16.57
2022-09-14T05:36:58.137Z,16.55
2022-09-14T05:37:58.140Z,16.57
2022-09-14T05:38:58.129Z,16.57
2022-09-14T05:39:58.165Z,16.52
2022-09-14T05:40:58.116Z,16.47
2022-09-14T05:41:58.062Z,16.46
2022-09-14T05:42:58.060Z,16.43
2022-09-14T05:43:58.056Z,16.40
2022-09-14T05:44:58.060Z,16.36
2022-09-14T05:45:58.055Z,16.34
2022-09-14T05:46:58.038Z,16.33
2022-09-14T05:47:57.988Z,16.36
2022-09-14T05:48:58.079Z,16.36
2022-09-14T05:49:57.958Z,16.36
2022-09-14T05:50:57.957Z,16.29
2022-09-14T05:51:57.961Z,16.29
2022-09-14T05:52:57.923Z,16.29
2022-09-14T05:53:57.923Z,16.28
2022-09-14T05:54:57.953Z,16.26
2022-09-14T05:55:57.924Z,16.25
2022-09-14T05:56:57.870Z,16.26
2022-09-14T05:57:57.861Z,16.26
2022-09-14T05:58:57.854Z,16.22
2022-09-14T05:59:57.871Z,16.17
2022-09-14T06:00:57.808Z,16.14
2022-09-14T06:01:57.840Z,16.10
2022-09-14T06:02:57.792Z,16.08
2022-09-14T06:03:57.789Z,16.08
2022-09-14T06:04:57.806Z,16.08
2022-09-14T06:05:57.739Z,16.10
2022-09-14T06:07:17.475Z,16.09
2022-09-14T06:07:57.755Z,16.06
2022-09-14T06:08:57.749Z,16.02
2022-09-14T06:09:57.690Z,15.99
2022-09-14T06:10:57.702Z,16.00
2022-09-14T06:11:57.662Z,16.02
2022-09-14T06:12:57.662Z,15.99
2022-09-14T06:13:57.649Z,16.02
2022-09-14T06:14:57.630Z,16.05
2022-09-14T06:15:57.597Z,16.06
2022-09-14T06:16:57.601Z,16.08
2022-09-14T06:17:57.585Z,16.09
2022-09-14T06:18:57.610Z,16.10
2022-09-14T06:20:01.051Z,16.06
2022-09-14T06:20:57.554Z,16.03
2022-09-14T06:21:57.521Z,16.00
2022-09-14T06:22:57.519Z,16.02
2022-09-14T06:23:57.512Z,16.03
2022-09-14T06:24:57.510Z,16.02
2022-09-14T06:25:57.466Z,16.02
2022-09-14T06:26:57.471Z,16.00
2022-09-14T06:27:57.453Z,16.02
2022-09-14T06:28:57.463Z,16.06
2022-09-14T06:29:57.422Z,16.05
2022-09-14T06:30:57.405Z,16.03
2022-09-14T06:31:57.394Z,16.05
2022-09-14T06:32:57.382Z,16.00
2022-09-14T06:33:57.398Z,15.99
2022-09-14T06:34:57.351Z,15.95
2022-09-14T06:35:57.376Z,15.93
2022-09-14T06:36:57.334Z,15.93
2022-09-14T06:37:57.314Z,15.93
2022-09-14T06:38:57.336Z,15.91
2022-09-14T06:39:57.340Z,15.85
2022-09-14T06:40:57.271Z,15.81
2022-09-14T06:41:57.253Z,15.76
2022-09-14T06:42:57.250Z,15.72
2022-09-14T06:43:57.245Z,15.70
2022-09-14T06:44:57.219Z,15.73
2022-09-14T06:45:57.196Z,15.77
2022-09-14T06:46:57.197Z,15.76
2022-09-14T06:47:57.174Z,15.76
2022-09-14T06:48:57.185Z,15.73
2022-09-14T06:49:57.165Z,15.73
2022-09-14T06:50:57.144Z,15.76
2022-09-14T06:51:57.118Z,15.76
2022-09-14T06:52:57.109Z,15.76
2022-09-14T06:53:57.128Z,15.76
2022-09-14T06:54:57.087Z,15.72
2022-09-14T06:55:57.066Z,15.77
2022-09-14T06:56:57.052Z,15.76
2022-09-14T06:57:57.044Z,15.73
2022-09-14T06:58:57.076Z,15.73
2022-09-14T06:59:57.053Z,15.73
2022-09-14T07:00:57.002Z,15.73
2022-09-14T07:01:57.060Z,15.73
2022-09-14T07:02:57.029Z,15.72
2022-09-14T07:03:56.978Z,15.69
2022-09-14T07:04:56.952Z,15.69
2022-09-14T07:05:56.934Z,15.65
2022-09-14T07:06:56.921Z,15.65
2022-09-14T07:07:56.952Z,15.65
2022-09-14T07:08:56.923Z,15.65
2022-09-14T07:09:56.880Z,15.65
2022-09-14T07:10:56.866Z,15.65
2022-09-14T07:11:56.879Z,15.63
2022-09-14T07:12:56.841Z,15.66
2022-09-14T07:13:56.840Z,15.63
2022-09-14T07:14:56.817Z,15.60
2022-09-14T07:15:56.799Z,15.59
2022-09-14T07:16:56.781Z,15.56
2022-09-14T07:17:56.773Z,15.52
2022-09-14T07:18:56.780Z,15.51
2022-09-14T07:19:56.740Z,15.51
2022-09-14T07:20:56.742Z,15.51
2022-09-14T07:21:56.717Z,15.56
2022-09-14T07:22:56.709Z,15.60
2022-09-14T07:23:57.142Z,15.65
2022-09-14T07:24:56.821Z,15.66
2022-09-14T07:25:56.730Z,15.68
2022-09-14T07:29:55.850Z,15.69
2022-09-14T07:30:59.014Z,15.69
2022-09-14T07:31:56.754Z,15.66
2022-09-14T07:32:56.753Z,15.69
2022-09-14T07:33:56.753Z,15.70
2022-09-14T07:34:56.710Z,15.77
2022-09-14T07:35:56.721Z,15.80
2022-09-14T07:36:56.703Z,15.80
2022-09-14T07:37:56.668Z,15.81
2022-09-14T07:38:56.689Z,15.81
2022-09-14T07:39:56.750Z,15.83
2022-09-14T07:40:56.625Z,15.85
2022-09-14T07:41:56.672Z,15.87
2022-09-14T07:42:57.766Z,15.90
2022-09-14T07:43:56.642Z,15.93
2022-09-14T07:44:56.597Z,15.95
2022-09-14T07:45:56.586Z,15.93
2022-09-14T07:46:56.549Z,15.91
2022-09-14T07:47:56.550Z,15.91
2022-09-14T07:48:56.555Z,15.91
2022-09-14T07:49:56.522Z,15.91
2022-09-14T07:50:56.507Z,15.96
2022-09-14T07:51:56.489Z,15.96
2022-09-14T07:52:56.478Z,15.93
2022-09-14T07:53:56.493Z,15.91
2022-09-14T07:54:56.449Z,15.91
2022-09-14T07:55:56.442Z,15.90
2022-09-14T07:56:56.427Z,15.85
2022-09-14T07:57:56.906Z,15.80
2022-09-14T07:59:07.097Z,15.78
2022-09-14T07:59:56.397Z,15.80
2022-09-14T08:00:56.442Z,15.78
2022-09-14T08:01:56.491Z,15.81
2022-09-14T08:02:56.420Z,15.83
2022-09-14T08:03:56.358Z,15.87
2022-09-14T08:04:56.333Z,15.88
2022-09-14T08:05:56.312Z,15.90
2022-09-14T08:06:56.314Z,15.93
2022-09-14T08:07:56.310Z,15.95
2022-09-14T08:08:56.285Z,15.96
2022-09-14T08:09:56.256Z,15.95
2022-09-14T08:10:56.239Z,15.95
2022-09-14T08:11:56.231Z,15.91
2022-09-14T08:12:56.213Z,15.87
2022-09-14T08:13:56.247Z,15.88
2022-09-14T08:14:56.183Z,15.88
2022-09-14T08:15:56.184Z,15.91
2022-09-14T08:16:56.215Z,15.98
2022-09-14T08:17:56.150Z,16.02
2022-09-14T08:18:56.237Z,16.00
2022-09-14T08:19:56.135Z,15.98
2022-09-14T08:20:56.105Z,15.96
2022-09-14T08:21:56.099Z,15.96
2022-09-14T08:22:56.078Z,15.91
2022-09-14T08:23:56.105Z,15.88
2022-09-14T08:24:56.059Z,15.91
2022-09-14T08:25:56.048Z,15.90
